Maersk Dayton — DDSC2 — position and weather

sailwx.info

Track history (hours):
 
Tides and Currents Weather Stations Pressure Air Temp Water Temp Dewpoint Dewpoint Depression Visibility Wind Speed Wind Dir Waves Ship Positions

Maersk Dayton

Last reported at 2016-Jun-25 19:33 UTC. Time now 2016-Jun-25 19:42 UTC.
Position N 53°52' E 008°44'.

Length 281 m; beam 32.2 m; draft 12.5 m.

Type: Ship. MMSI: 218024000.

Date/timePositionNaut miles runAvg speedWind from/ knotsBaromVisibWave heightAir tempDewpointWater temp
2016-Jun-25 19:33N 53°52' E 008°44'1615.6
2016-Jun-25 18:33N 53°53' E 009°10'1313.5
2016-Jun-25 17:34N 53°44' E 009°27'1212.3
2016-Jun-25 16:33N 53°34' E 009°40'9 8.7
2016-Jun-25 15:33N 53°32' E 009°54'0 0.3
2016-Jun-25 14:31N 53°32' E 009°55'0 0.0
2016-Jun-25 13:31N 53°32' E 009°55'0 0.0
2016-Jun-25 12:31N 53°32' E 009°55'0 0.0
2016-Jun-25 11:33N 53°32' E 009°55'0 0.0
2016-Jun-25 10:33N 53°32' E 009°55'0 0.0
2016-Jun-25 09:33N 53°32' E 009°55'0 0.0
2016-Jun-25 08:32N 53°32' E 009°55'0 0.0
2016-Jun-25 07:32N 53°32' E 009°55'0 0.0
2016-Jun-25 06:33N 53°32' E 009°55'0 0.0
2016-Jun-25 05:31N 53°32' E 009°55'0 0.0
2016-Jun-25 04:31N 53°32' E 009°55'0 0.0
2016-Jun-25 03:31N 53°32' E 009°55'0 0.0
2016-Jun-25 02:31N 53°32' E 009°55'0 0.0
2016-Jun-25 01:33N 53°32' E 009°55'0 0.0
2016-Jun-25 00:33N 53°32' E 009°55'0 0.0
2016-Jun-24 23:32N 53°32' E 009°55'0 0.0
2016-Jun-24 22:32N 53°32' E 009°55'0 0.0
2016-Jun-24 21:32N 53°32' E 009°55'0 0.0
2016-Jun-24 20:32N 53°32' E 009°55'0 0.0
2016-Jun-24 19:32N 53°32' E 009°55'0 0.0
2016-Jun-24 18:32N 53°32' E 009°55'0 0.0
2016-Jun-24 17:32N 53°32' E 009°55'0 0.0
2016-Jun-24 16:32N 53°32' E 009°55'0 0.0
2016-Jun-24 15:32N 53°32' E 009°55'0 0.0
2016-Jun-24 14:32N 53°32' E 009°55'0 0.0
2016-Jun-24 13:32N 53°32' E 009°55'0 0.0
2016-Jun-24 12:32N 53°32' E 009°55'0 0.0
2016-Jun-24 11:31N 53°32' E 009°55'0 0.0
2016-Jun-24 10:31N 53°32' E 009°55'0 0.0
2016-Jun-24 09:33N 53°32' E 009°55'0 0.0
2016-Jun-24 08:31N 53°32' E 009°55'0 0.0
2016-Jun-24 07:31N 53°32' E 009°55'0 0.0
2016-Jun-24 04:33N 53°32' E 009°55'1 0.5
2016-Jun-24 03:34N 53°32' E 009°54'9 8.7
2016-Jun-24 02:33N 53°34' E 009°40'1211.7
2016-Jun-24 01:33N 53°43' E 009°28'1413.8
2016-Jun-24 00:34N 53°53' E 009°11'1110.7
2016-Jun-23 23:33N 53°50' E 008°53'1211.7
2016-Jun-23 22:33N 53°57' E 008°37'1514.7
2016-Jun-23 21:33N 53°60' E 008°12'1414.0
2016-Jun-23 20:33N 53°57' E 007°49'1616.3
2016-Jun-23 19:33N 53°53' E 007°22'1716.7
2016-Jun-23 18:33N 53°50' E 006°54'1616.0
2016-Jun-23 17:34N 53°46' E 006°28'1515.2
2016-Jun-23 16:34N 53°42' E 006°03'1515.2
2016-Jun-23 15:34N 53°37' E 005°39'1515.0
2016-Jun-23 14:34N 53°33' E 005°14'1515.3
2016-Jun-23 13:34N 53°27' E 004°51'1514.7
2016-Jun-23 12:33N 53°15' E 004°36'1615.7
2016-Jun-23 11:34N 53°01' E 004°23'1515.5
2016-Jun-23 10:34N 52°47' E 004°12'1515.3
2016-Jun-23 09:34N 52°35' E 003°57'1615.5
2016-Jun-23 08:33N 52°20' E 003°52'1616.0
2016-Jun-23 07:33N 52°04' E 003°57'8 3.9
2016-Jun-23 05:33N 51°57' E 004°03'0 0.0
2016-Jun-23 04:33N 51°57' E 004°03'0 0.0
2016-Jun-23 03:33N 51°57' E 004°03'0 0.0
2016-Jun-23 02:33N 51°57' E 004°03'0 0.0
2016-Jun-23 01:32N 51°57' E 004°03'0 0.0
2016-Jun-23 00:33N 51°57' E 004°03'0 0.0
2016-Jun-22 23:32N 51°57' E 004°03'0 0.0
2016-Jun-22 22:32N 51°57' E 004°03'0 0.0
2016-Jun-22 21:32N 51°57' E 004°03'0 0.0
2016-Jun-22 20:33N 51°57' E 004°03'0 0.0
2016-Jun-22 19:33N 51°57' E 004°03'0 0.0
2016-Jun-22 18:29N 51°57' E 004°03'0 0.0
2016-Jun-22 17:34N 51°57' E 004°03'0 0.0
2016-Jun-22 16:33N 51°57' E 004°03'0 0.0
2016-Jun-22 15:33N 51°57' E 004°03'0 0.0
2016-Jun-22 14:33N 51°57' E 004°03'0 0.0
2016-Jun-22 13:33N 51°57' E 004°03'0 0.0
2016-Jun-22 12:33N 51°57' E 004°03'2 2.4
2016-Jun-22 11:33N 51°59' E 004°03'9 9.2
2016-Jun-22 10:33N 51°60' E 003°48'1111.4
2016-Jun-22 09:33N 51°56' E 003°30'1211.5
2016-Jun-22 08:33N 51°53' E 003°12'1514.2
2016-Jun-22 07:31N 51°49' E 002°50'1515.4
2016-Jun-22 06:33N 51°41' E 002°29'1413.7
2016-Jun-22 05:33N 51°30' E 002°15'1413.6
2016-Jun-22 04:33N 51°18' E 002°07'1313.4
2016-Jun-22 03:33N 51°09' E 001°51'1413.5
2016-Jun-22 02:33N 51°00' E 001°34'1515.5
2016-Jun-22 01:34N 50°46' E 001°24'2018.0
2016-Jun-22 00:26N 50°32' E 001°01'3418.0
2016-Jun-21 22:34N 50°21' E 000°11'1919.1
2016-Jun-21 21:34N 50°17' W 000°18'4519.8
2016-Jun-21 19:18N 50°05' W 001°26'5218.1
2016-Jun-21 16:26N 49°51' W 002°44'1517.1
2016-Jun-21 15:34N 49°45' W 003°05'1716.9
2016-Jun-21 14:33N 49°41' W 003°31'1717.0
2016-Jun-21 13:33N 49°35' W 003°55'1816.7
2016-Jun-21 12:30N 49°29' W 004°21'3916.5
2016-Jun-21 10:09N 49°15' W 005°16'1016.3
2016-Jun-21 09:33N 49°12' W 005°30'49017.8
2016-Jun-20 06:00N 46°12' W 016°48'55318.4 260 / 211022.0 2.2 1.016.515.715.0
2016-Jun-19 00:00N 42°48' W 028°48'22618.9 210 / 211026.5 0.0 2.018.517.316.6
2016-Jun-18 12:00N 41°12' W 033°24'22418.7 210 / 211022.5 0.3 2.021.018.818.0
2016-Jun-18 00:00N 39°24' W 037°42'22819.0 160 / 101021.5 2.2 0.521.019.519.0
2016-Jun-17 12:00N 37°30' W 041°54'10517.5 220 / 121021.0 5.4 1.022.019.420.0
2016-Jun-17 06:00N 36°30' W 043°42'11419.0 240 / 121018.0 5.4 0.523.020.823.0
2016-Jun-17 00:00N 35°30' W 045°42'10717.8 240 / 101019.0 5.4 1.022.520.622.0
2016-Jun-16 18:00N 34°30' W 047°30'11519.2 230 / 151019.010.8 1.024.0 23.0
2016-Jun-16 12:00N 33°18' W 049°18'11218.7 240 / 111020.0 5.4 1.025.021.523.0
2016-Jun-16 06:00N 32°12' W 051°06'11318.8 230 / 151019.010.8 1.525.0 25.0
2016-Jun-16 00:00N 31°00' W 052°48'   230 / 121021.0 1.026.023.325.0
Track history (hours):
 
Tides and Currents Weather Stations Pressure Air Temp Water Temp Dewpoint Dewpoint Depression Visibility Wind Speed Wind Dir Waves Ship Positions

Maersk Dayton

Last reported at 2016-Jun-25 19:33 UTC. Time now 2016-Jun-25 19:42 UTC.
Position N 53°52' E 008°44'.

Length 281 m; beam 32.2 m; draft 12.5 m.

Type: Ship. MMSI: 218024000.

Date/timePositionNaut miles runAvg speedWind from/ knotsBaromVisibWave heightAir tempDewpointWater temp
2016-Jun-25 19:33N 53°52' E 008°44'1615.6
2016-Jun-25 18:33N 53°53' E 009°10'1313.5
2016-Jun-25 17:34N 53°44' E 009°27'1212.3
2016-Jun-25 16:33N 53°34' E 009°40'9 8.7
2016-Jun-25 15:33N 53°32' E 009°54'0 0.3
2016-Jun-25 14:31N 53°32' E 009°55'0 0.0
2016-Jun-25 13:31N 53°32' E 009°55'0 0.0
2016-Jun-25 12:31N 53°32' E 009°55'0 0.0
2016-Jun-25 11:33N 53°32' E 009°55'0 0.0
2016-Jun-25 10:33N 53°32' E 009°55'0 0.0
2016-Jun-25 09:33N 53°32' E 009°55'0 0.0
2016-Jun-25 08:32N 53°32' E 009°55'0 0.0
2016-Jun-25 07:32N 53°32' E 009°55'0 0.0
2016-Jun-25 06:33N 53°32' E 009°55'0 0.0
2016-Jun-25 05:31N 53°32' E 009°55'0 0.0
2016-Jun-25 04:31N 53°32' E 009°55'0 0.0
2016-Jun-25 03:31N 53°32' E 009°55'0 0.0
2016-Jun-25 02:31N 53°32' E 009°55'0 0.0
2016-Jun-25 01:33N 53°32' E 009°55'0 0.0
2016-Jun-25 00:33N 53°32' E 009°55'0 0.0
2016-Jun-24 23:32N 53°32' E 009°55'0 0.0
2016-Jun-24 22:32N 53°32' E 009°55'0 0.0
2016-Jun-24 21:32N 53°32' E 009°55'0 0.0
2016-Jun-24 20:32N 53°32' E 009°55'0 0.0
2016-Jun-24 19:32N 53°32' E 009°55'0 0.0
2016-Jun-24 18:32N 53°32' E 009°55'0 0.0
2016-Jun-24 17:32N 53°32' E 009°55'0 0.0
2016-Jun-24 16:32N 53°32' E 009°55'0 0.0
2016-Jun-24 15:32N 53°32' E 009°55'0 0.0
2016-Jun-24 14:32N 53°32' E 009°55'0 0.0
2016-Jun-24 13:32N 53°32' E 009°55'0 0.0
2016-Jun-24 12:32N 53°32' E 009°55'0 0.0
2016-Jun-24 11:31N 53°32' E 009°55'0 0.0
2016-Jun-24 10:31N 53°32' E 009°55'0 0.0
2016-Jun-24 09:33N 53°32' E 009°55'0 0.0
2016-Jun-24 08:31N 53°32' E 009°55'0 0.0
2016-Jun-24 07:31N 53°32' E 009°55'0 0.0
2016-Jun-24 04:33N 53°32' E 009°55'1 0.5
2016-Jun-24 03:34N 53°32' E 009°54'9 8.7
2016-Jun-24 02:33N 53°34' E 009°40'1211.7
2016-Jun-24 01:33N 53°43' E 009°28'1413.8
2016-Jun-24 00:34N 53°53' E 009°11'1110.7
2016-Jun-23 23:33N 53°50' E 008°53'1211.7
2016-Jun-23 22:33N 53°57' E 008°37'1514.7
2016-Jun-23 21:33N 53°60' E 008°12'1414.0
2016-Jun-23 20:33N 53°57' E 007°49'1616.3
2016-Jun-23 19:33N 53°53' E 007°22'1716.7
2016-Jun-23 18:33N 53°50' E 006°54'1616.0
2016-Jun-23 17:34N 53°46' E 006°28'1515.2
2016-Jun-23 16:34N 53°42' E 006°03'1515.2
2016-Jun-23 15:34N 53°37' E 005°39'1515.0
2016-Jun-23 14:34N 53°33' E 005°14'1515.3
2016-Jun-23 13:34N 53°27' E 004°51'1514.7
2016-Jun-23 12:33N 53°15' E 004°36'1615.7
2016-Jun-23 11:34N 53°01' E 004°23'1515.5
2016-Jun-23 10:34N 52°47' E 004°12'1515.3
2016-Jun-23 09:34N 52°35' E 003°57'1615.5
2016-Jun-23 08:33N 52°20' E 003°52'1616.0
2016-Jun-23 07:33N 52°04' E 003°57'8 3.9
2016-Jun-23 05:33N 51°57' E 004°03'0 0.0
2016-Jun-23 04:33N 51°57' E 004°03'0 0.0
2016-Jun-23 03:33N 51°57' E 004°03'0 0.0
2016-Jun-23 02:33N 51°57' E 004°03'0 0.0
2016-Jun-23 01:32N 51°57' E 004°03'0 0.0
2016-Jun-23 00:33N 51°57' E 004°03'0 0.0
2016-Jun-22 23:32N 51°57' E 004°03'0 0.0
2016-Jun-22 22:32N 51°57' E 004°03'0 0.0
2016-Jun-22 21:32N 51°57' E 004°03'0 0.0
2016-Jun-22 20:33N 51°57' E 004°03'0 0.0
2016-Jun-22 19:33N 51°57' E 004°03'0 0.0
2016-Jun-22 18:29N 51°57' E 004°03'0 0.0
2016-Jun-22 17:34N 51°57' E 004°03'0 0.0
2016-Jun-22 16:33N 51°57' E 004°03'0 0.0
2016-Jun-22 15:33N 51°57' E 004°03'0 0.0
2016-Jun-22 14:33N 51°57' E 004°03'0 0.0
2016-Jun-22 13:33N 51°57' E 004°03'0 0.0
2016-Jun-22 12:33N 51°57' E 004°03'2 2.4
2016-Jun-22 11:33N 51°59' E 004°03'9 9.2
2016-Jun-22 10:33N 51°60' E 003°48'1111.4
2016-Jun-22 09:33N 51°56' E 003°30'1211.5
2016-Jun-22 08:33N 51°53' E 003°12'1514.2
2016-Jun-22 07:31N 51°49' E 002°50'1515.4
2016-Jun-22 06:33N 51°41' E 002°29'1413.7
2016-Jun-22 05:33N 51°30' E 002°15'1413.6
2016-Jun-22 04:33N 51°18' E 002°07'1313.4
2016-Jun-22 03:33N 51°09' E 001°51'1413.5
2016-Jun-22 02:33N 51°00' E 001°34'1515.5
2016-Jun-22 01:34N 50°46' E 001°24'2018.0
2016-Jun-22 00:26N 50°32' E 001°01'3418.0
2016-Jun-21 22:34N 50°21' E 000°11'1919.1
2016-Jun-21 21:34N 50°17' W 000°18'4519.8
2016-Jun-21 19:18N 50°05' W 001°26'5218.1
2016-Jun-21 16:26N 49°51' W 002°44'1517.1
2016-Jun-21 15:34N 49°45' W 003°05'1716.9
2016-Jun-21 14:33N 49°41' W 003°31'1717.0
2016-Jun-21 13:33N 49°35' W 003°55'1816.7
2016-Jun-21 12:30N 49°29' W 004°21'3916.5
2016-Jun-21 10:09N 49°15' W 005°16'1016.3
2016-Jun-21 09:33N 49°12' W 005°30'49017.8
2016-Jun-20 06:00N 46°12' W 016°48'55318.4 260 / 211022.0 2.2 1.016.515.715.0
2016-Jun-19 00:00N 42°48' W 028°48'22618.9 210 / 211026.5 0.0 2.018.517.316.6
2016-Jun-18 12:00N 41°12' W 033°24'22418.7 210 / 211022.5 0.3 2.021.018.818.0
2016-Jun-18 00:00N 39°24' W 037°42'22819.0 160 / 101021.5 2.2 0.521.019.519.0
2016-Jun-17 12:00N 37°30' W 041°54'10517.5 220 / 121021.0 5.4 1.022.019.420.0
2016-Jun-17 06:00N 36°30' W 043°42'11419.0 240 / 121018.0 5.4 0.523.020.823.0
2016-Jun-17 00:00N 35°30' W 045°42'10717.8 240 / 101019.0 5.4 1.022.520.622.0
2016-Jun-16 18:00N 34°30' W 047°30'11519.2 230 / 151019.010.8 1.024.0 23.0
2016-Jun-16 12:00N 33°18' W 049°18'11218.7 240 / 111020.0 5.4 1.025.021.523.0
2016-Jun-16 06:00N 32°12' W 051°06'11318.8 230 / 151019.010.8 1.525.0 25.0
2016-Jun-16 00:00N 31°00' W 052°48'   230 / 121021.0 1.026.023.325.0

Dump ship's entire track history